sensor_id;sensor_type;location;lat;lon;timestamp;pressure;altitude;pressure_sealevel;temperature;humidity
25664;BME280;13522;50.018;20.014;2023-07-31T00:03:04;98344.81;;;19.10;100.00
25664;BME280;13522;50.018;20.014;2023-07-31T00:06:17;98341.50;;;19.08;100.00
25664;BME280;13522;50.018;20.014;2023-07-31T00:09:29;98356.02;;;19.07;100.00
25664;BME280;13522;50.018;20.014;2023-07-31T00:12:44;98348.95;;;19.06;100.00
25664;BME280;13522;50.018;20.014;2023-07-31T00:15:57;98352.08;;;19.03;100.00
25664;BME280;13522;50.018;20.014;2023-07-31T00:19:09;98349.99;;;18.98;100.00
25664;BME280;13522;50.018;20.014;2023-07-31T00:22:22;98350.20;;;18.97;100.00
25664;BME280;13522;50.018;20.014;2023-07-31T00:25:34;98344.20;;;18.95;100.00
25664;BME280;13522;50.018;20.014;2023-07-31T00:28:46;98352.67;;;18.92;100.00
25664;BME280;13522;50.018;20.014;2023-07-31T00:31:58;98354.12;;;18.88;100.00
25664;BME280;13522;50.018;20.014;2023-07-31T00:35:10;98353.92;;;18.83;100.00
25664;BME280;13522;50.018;20.014;2023-07-31T00:38:23;98363.44;;;18.79;100.00
25664;BME280;13522;50.018;20.014;2023-07-31T00:41:35;98365.50;;;18.77;100.00
25664;BME280;13522;50.018;20.014;2023-07-31T00:44:47;98363.83;;;18.76;100.00
25664;BME280;13522;50.018;20.014;2023-07-31T00:48:00;98357.02;;;18.73;100.00
25664;BME280;13522;50.018;20.014;2023-07-31T00:51:14;98358.46;;;18.69;100.00
25664;BME280;13522;50.018;20.014;2023-07-31T00:54:26;98360.92;;;18.64;100.00
25664;BME280;13522;50.018;20.014;2023-07-31T00:57:39;98367.55;;;18.62;100.00
25664;BME280;13522;50.018;20.014;2023-07-31T01:00:55;98363.62;;;18.58;100.00
25664;BME280;13522;50.018;20.014;2023-07-31T01:04:08;98367.92;;;18.52;100.00
25664;BME280;13522;50.018;20.014;2023-07-31T01:07:25;98366.67;;;18.48;100.00
25664;BME280;13522;50.018;20.014;2023-07-31T01:10:44;98359.59;;;18.41;100.00
25664;BME280;13522;50.018;20.014;2023-07-31T01:13:57;98359.23;;;18.44;100.00
25664;BME280;13522;50.018;20.014;2023-07-31T01:17:09;98368.70;;;18.40;100.00
25664;BME280;13522;50.018;20.014;2023-07-31T01:20:24;98364.97;;;18.41;100.00
25664;BME280;13522;50.018;20.014;2023-07-31T01:24:01;98366.64;;;18.42;100.00
25664;BME280;13522;50.018;20.014;2023-07-31T01:27:25;98368.95;;;18.45;100.00
25664;BME280;13522;50.018;20.014;2023-07-31T01:30:43;98371.88;;;18.50;100.00
25664;BME280;13522;50.018;20.014;2023-07-31T01:33:59;98365.66;;;18.49;100.00
25664;BME280;13522;50.018;20.014;2023-07-31T01:37:12;98367.13;;;18.52;100.00
25664;BME280;13522;50.018;20.014;2023-07-31T01:40:25;98363.38;;;18.53;100.00
25664;BME280;13522;50.018;20.014;2023-07-31T01:43:37;98368.38;;;18.56;100.00
25664;BME280;13522;50.018;20.014;2023-07-31T01:46:49;98371.06;;;18.56;100.00
25664;BME280;13522;50.018;20.014;2023-07-31T01:50:02;98378.50;;;18.54;100.00
25664;BME280;13522;50.018;20.014;2023-07-31T01:53:15;98377.25;;;18.50;100.00
25664;BME280;13522;50.018;20.014;2023-07-31T01:56:27;98382.63;;;18.50;100.00
25664;BME280;13522;50.018;20.014;2023-07-31T01:59:42;98376.63;;;18.48;100.00
25664;BME280;13522;50.018;20.014;2023-07-31T02:02:54;98380.33;;;18.47;100.00
25664;BME280;13522;50.018;20.014;2023-07-31T02:06:07;98386.94;;;18.44;100.00
25664;BME280;13522;50.018;20.014;2023-07-31T02:09:19;98384.06;;;18.46;100.00
25664;BME280;13522;50.018;20.014;2023-07-31T02:12:32;98389.45;;;18.46;100.00
25664;BME280;13522;50.018;20.014;2023-07-31T02:15:44;98393.15;;;18.45;100.00
25664;BME280;13522;50.018;20.014;2023-07-31T02:18:57;98394.34;;;18.42;100.00
25664;BME280;13522;50.018;20.014;2023-07-31T02:22:10;98401.78;;;18.40;100.00
25664;BME280;13522;50.018;20.014;2023-07-31T02:25:25;98405.52;;;18.39;100.00
25664;BME280;13522;50.018;20.014;2023-07-31T02:28:37;98404.89;;;18.37;100.00
25664;BME280;13522;50.018;20.014;2023-07-31T02:31:50;98416.23;;;18.33;100.00
25664;BME280;13522;50.018;20.014;2023-07-31T02:35:03;98426.98;;;18.33;100.00
25664;BME280;13522;50.018;20.014;2023-07-31T02:38:19;98428.66;;;18.34;100.00
25664;BME280;13522;50.018;20.014;2023-07-31T02:41:32;98421.86;;;18.38;100.00
25664;BME280;13522;50.018;20.014;2023-07-31T02:44:44;98433.24;;;18.40;100.00
25664;BME280;13522;50.018;20.014;2023-07-31T02:47:59;98433.63;;;18.37;100.00
25664;BME280;13522;50.018;20.014;2023-07-31T02:51:11;98440.68;;;18.38;100.00
25664;BME280;13522;50.018;20.014;2023-07-31T02:54:24;98442.73;;;18.36;100.00
25664;BME280;13522;50.018;20.014;2023-07-31T02:57:36;98447.70;;;18.39;100.00
25664;BME280;13522;50.018;20.014;2023-07-31T03:00:48;98444.00;;;18.40;100.00
25664;BME280;13522;50.018;20.014;2023-07-31T03:04:01;98447.70;;;18.39;100.00
25664;BME280;13522;50.018;20.014;2023-07-31T03:07:13;98455.98;;;18.37;100.00
25664;BME280;13522;50.018;20.014;2023-07-31T03:10:25;98462.58;;;18.35;100.00
25664;BME280;13522;50.018;20.014;2023-07-31T03:13:37;98464.84;;;18.31;100.00
25664;BME280;13522;50.018;20.014;2023-07-31T03:16:50;98457.61;;;18.32;100.00
25664;BME280;13522;50.018;20.014;2023-07-31T03:20:03;98466.31;;;18.34;100.00
25664;BME280;13522;50.018;20.014;2023-07-31T03:23:16;98465.05;;;18.30;100.00
25664;BME280;13522;50.018;20.014;2023-07-31T03:26:30;98467.73;;;18.30;100.00
25664;BME280;13522;50.018;20.014;2023-07-31T03:29:43;98464.17;;;18.23;100.00
25664;BME280;13522;50.018;20.014;2023-07-31T03:32:58;98467.06;;;18.21;100.00
25664;BME280;13522;50.018;20.014;2023-07-31T03:36:10;98469.16;;;18.26;100.00
25664;BME280;13522;50.018;20.014;2023-07-31T03:39:23;98476.98;;;18.20;100.00
25664;BME280;13522;50.018;20.014;2023-07-31T03:42:35;98464.53;;;18.13;100.00
25664;BME280;13522;50.018;20.014;2023-07-31T03:45:47;98468.69;;;18.15;100.00
25664;BME280;13522;50.018;20.014;2023-07-31T03:49:00;98467.22;;;18.13;100.00
25664;BME280;13522;50.018;20.014;2023-07-31T03:52:13;98467.86;;;18.15;100.00
25664;BME280;13522;50.018;20.014;2023-07-31T03:55:25;98462.27;;;18.10;100.00
25664;BME280;13522;50.018;20.014;2023-07-31T03:58:38;98462.27;;;18.16;100.00
25664;BME280;13522;50.018;20.014;2023-07-31T04:01:50;98458.57;;;18.17;100.00
25664;BME280;13522;50.018;20.014;2023-07-31T04:05:03;98456.27;;;18.14;100.00
25664;BME280;13522;50.018;20.014;2023-07-31T04:08:16;98468.91;;;18.20;100.00
25664;BME280;13522;50.018;20.014;2023-07-31T04:11:28;98455.47;;;18.20;100.00
25664;BME280;13522;50.018;20.014;2023-07-31T04:14:40;98452.16;;;18.18;100.00
25664;BME280;13522;50.018;20.014;2023-07-31T04:17:52;98464.80;;;18.25;100.00
25664;BME280;13522;50.018;20.014;2023-07-31T04:21:05;98459.58;;;18.16;100.00
25664;BME280;13522;50.018;20.014;2023-07-31T04:24:17;98458.79;;;18.23;100.00
25664;BME280;13522;50.018;20.014;2023-07-31T04:27:30;98470.81;;;18.27;100.00
25664;BME280;13522;50.018;20.014;2023-07-31T04:30:42;98466.86;;;18.23;100.00
25664;BME280;13522;50.018;20.014;2023-07-31T04:33:56;98470.81;;;18.27;100.00
25664;BME280;13522;50.018;20.014;2023-07-31T04:37:08;98466.69;;;18.31;100.00
25664;BME280;13522;50.018;20.014;2023-07-31T04:40:20;98471.34;;;18.43;100.00
25664;BME280;13522;50.018;20.014;2023-07-31T04:43:32;98484.58;;;18.45;100.00
25664;BME280;13522;50.018;20.014;2023-07-31T04:46:46;98477.77;;;18.49;100.00
25664;BME280;13522;50.018;20.014;2023-07-31T04:49:58;98486.52;;;18.57;100.00
25664;BME280;13522;50.018;20.014;2023-07-31T04:53:11;98486.94;;;18.61;100.00
25664;BME280;13522;50.018;20.014;2023-07-31T04:56:23;98491.30;;;18.62;100.00
25664;BME280;13522;50.018;20.014;2023-07-31T04:59:35;98495.77;;;18.48;100.00
25664;BME280;13522;50.018;20.014;2023-07-31T05:02:48;98507.82;;;18.59;100.00
25664;BME280;13522;50.018;20.014;2023-07-31T05:06:00;98501.64;;;18.65;100.00
25664;BME280;13522;50.018;20.014;2023-07-31T05:09:13;98507.86;;;18.72;100.00
25664;BME280;13522;50.018;20.014;2023-07-31T05:12:25;98516.35;;;18.69;100.00
25664;BME280;13522;50.018;20.014;2023-07-31T05:15:37;98521.94;;;18.67;100.00
25664;BME280;13522;50.018;20.014;2023-07-31T05:18:50;98527.70;;;18.58;100.00
25664;BME280;13522;50.018;20.014;2023-07-31T05:22:03;98527.53;;;18.38;100.00
25664;BME280;13522;50.018;20.014;2023-07-31T05:25:16;98530.05;;;18.40;100.00
25664;BME280;13522;50.018;20.014;2023-07-31T05:28:28;98541.69;;;18.47;100.00
25664;BME280;13522;50.018;20.014;2023-07-31T05:31:41;98534.05;;;18.50;100.00
25664;BME280;13522;50.018;20.014;2023-07-31T05:34:53;98537.20;;;18.60;100.00
25664;BME280;13522;50.018;20.014;2023-07-31T05:38:06;98537.03;;;18.68;100.00
25664;BME280;13522;50.018;20.014;2023-07-31T05:41:18;98538.92;;;18.74;100.00
25664;BME280;13522;50.018;20.014;2023-07-31T05:44:30;98542.04;;;18.78;100.00
25664;BME280;13522;50.018;20.014;2023-07-31T05:47:42;98538.09;;;18.74;100.00
25664;BME280;13522;50.018;20.014;2023-07-31T05:50:55;98508.70;;;18.66;100.00
25664;BME280;13522;50.018;20.014;2023-07-31T05:54:07;98544.34;;;18.81;100.00
25664;BME280;13522;50.018;20.014;2023-07-31T05:57:19;98539.00;;;18.87;100.00
25664;BME280;13522;50.018;20.014;2023-07-31T06:00:32;98540.26;;;18.98;100.00
25664;BME280;13522;50.018;20.014;2023-07-31T06:03:45;98537.83;;;19.16;100.00
25664;BME280;13522;50.018;20.014;2023-07-31T06:06:57;98535.81;;;19.31;100.00
25664;BME280;13522;50.018;20.014;2023-07-31T06:10:11;98540.38;;;19.37;100.00
25664;BME280;13522;50.018;20.014;2023-07-31T06:13:24;98544.91;;;19.30;100.00
25664;BME280;13522;50.018;20.014;2023-07-31T06:16:37;98543.70;;;19.39;100.00
25664;BME280;13522;50.018;20.014;2023-07-31T06:19:51;98540.59;;;19.36;100.00
25664;BME280;13522;50.018;20.014;2023-07-31T06:23:03;98540.81;;;19.34;100.00
25664;BME280;13522;50.018;20.014;2023-07-31T06:26:15;98543.27;;;19.29;100.00
25664;BME280;13522;50.018;20.014;2023-07-31T06:29:28;98539.33;;;19.25;100.00
25664;BME280;13522;50.018;20.014;2023-07-31T06:32:40;98546.13;;;19.15;100.00
25664;BME280;13522;50.018;20.014;2023-07-31T06:35:53;98547.08;;;18.94;100.00
25664;BME280;13522;50.018;20.014;2023-07-31T06:39:05;98547.28;;;18.92;100.00
25664;BME280;13522;50.018;20.014;2023-07-31T06:42:18;98543.81;;;19.05;100.00
25664;BME280;13522;50.018;20.014;2023-07-31T06:45:30;98540.70;;;19.08;100.00
25664;BME280;13522;50.018;20.014;2023-07-31T06:48:44;98540.50;;;19.03;100.00
25664;BME280;13522;50.018;20.014;2023-07-31T06:51:56;98547.31;;;18.99;100.00
25664;BME280;13522;50.018;20.014;2023-07-31T06:55:20;98547.25;;;18.79;100.00
25664;BME280;13522;50.018;20.014;2023-07-31T06:58:33;98554.27;;;18.80;100.00
25664;BME280;13522;50.018;20.014;2023-07-31T07:01:45;98547.88;;;18.88;100.00
25664;BME280;13522;50.018;20.014;2023-07-31T07:04:58;98552.45;;;18.94;100.00
25664;BME280;13522;50.018;20.014;2023-07-31T07:08:11;98545.46;;;19.06;100.00
25664;BME280;13522;50.018;20.014;2023-07-31T07:11:24;98545.49;;;19.13;100.00
25664;BME280;13522;50.018;20.014;2023-07-31T07:14:36;98545.70;;;19.18;100.00
25664;BME280;13522;50.018;20.014;2023-07-31T07:17:48;98550.51;;;19.29;100.00
25664;BME280;13522;50.018;20.014;2023-07-31T07:21:01;98543.50;;;19.34;99.24
25664;BME280;13522;50.018;20.014;2023-07-31T07:24:13;98542.08;;;19.45;98.35
25664;BME280;13522;50.018;20.014;2023-07-31T07:27:25;98536.48;;;19.59;98.81
25664;BME280;13522;50.018;20.014;2023-07-31T07:30:40;98540.87;;;19.86;99.34
25664;BME280;13522;50.018;20.014;2023-07-31T07:33:53;98537.37;;;20.76;95.67
25664;BME280;13522;50.018;20.014;2023-07-31T07:37:07;98529.33;;;21.76;91.59
25664;BME280;13522;50.018;20.014;2023-07-31T07:40:19;98523.33;;;21.99;88.50
25664;BME280;13522;50.018;20.014;2023-07-31T07:43:32;98533.56;;;21.66;88.53
25664;BME280;13522;50.018;20.014;2023-07-31T07:46:44;98538.02;;;21.22;91.89
25664;BME280;13522;50.018;20.014;2023-07-31T07:49:57;98551.91;;;20.82;91.79
25664;BME280;13522;50.018;20.014;2023-07-31T07:53:11;98551.55;;;20.58;93.16
25664;BME280;13522;50.018;20.014;2023-07-31T07:56:25;98558.41;;;20.54;92.55
25664;BME280;13522;50.018;20.014;2023-07-31T07:59:38;98555.58;;;20.23;93.46
25664;BME280;13522;50.018;20.014;2023-07-31T08:02:51;98555.76;;;20.15;94.12
25664;BME280;13522;50.018;20.014;2023-07-31T08:06:05;98559.51;;;20.08;93.11
25664;BME280;13522;50.018;20.014;2023-07-31T08:09:18;98560.55;;;19.94;94.80
25664;BME280;13522;50.018;20.014;2023-07-31T08:12:30;98559.09;;;19.98;95.31
25664;BME280;13522;50.018;20.014;2023-07-31T08:15:44;98565.51;;;19.97;95.12
25664;BME280;13522;50.018;20.014;2023-07-31T08:18:56;98564.28;;;20.06;95.08
25664;BME280;13522;50.018;20.014;2023-07-31T08:22:09;98557.63;;;20.15;95.33
25664;BME280;13522;50.018;20.014;2023-07-31T08:25:22;98570.07;;;20.03;94.12
25664;BME280;13522;50.018;20.014;2023-07-31T08:28:35;98556.20;;;20.12;94.93
25664;BME280;13522;50.018;20.014;2023-07-31T08:31:47;98564.47;;;20.11;94.00
25664;BME280;13522;50.018;20.014;2023-07-31T08:35:00;98569.28;;;20.22;93.73
25664;BME280;13522;50.018;20.014;2023-07-31T08:38:13;98568.44;;;20.28;93.57
25664;BME280;13522;50.018;20.014;2023-07-31T08:41:26;98568.22;;;20.23;92.11
25664;BME280;13522;50.018;20.014;2023-07-31T08:44:40;98567.34;;;20.55;93.33
25664;BME280;13522;50.018;20.014;2023-07-31T08:47:53;98572.69;;;20.68;92.22
25664;BME280;13522;50.018;20.014;2023-07-31T08:51:07;98570.99;;;20.80;90.92
25664;BME280;13522;50.018;20.014;2023-07-31T08:54:20;98564.19;;;20.71;89.80
25664;BME280;13522;50.018;20.014;2023-07-31T08:57:36;98564.59;;;20.68;89.45
25664;BME280;13522;50.018;20.014;2023-07-31T09:00:49;98562.56;;;20.57;90.65
25664;BME280;13522;50.018;20.014;2023-07-31T09:04:05;98563.11;;;20.79;89.50
25664;BME280;13522;50.018;20.014;2023-07-31T09:07:18;98559.81;;;20.70;89.58
25664;BME280;13522;50.018;20.014;2023-07-31T09:10:30;98559.78;;;20.83;89.62
25664;BME280;13522;50.018;20.014;2023-07-31T09:13:43;98563.34;;;20.70;87.98
25664;BME280;13522;50.018;20.014;2023-07-31T09:16:59;98562.56;;;20.57;88.47
25664;BME280;13522;50.018;20.014;2023-07-31T09:20:18;98568.58;;;20.59;88.13
25664;BME280;13522;50.018;20.014;2023-07-31T09:23:43;98562.39;;;20.45;85.07
25664;BME280;13522;50.018;20.014;2023-07-31T09:27:00;98564.25;;;20.51;84.25
25664;BME280;13522;50.018;20.014;2023-07-31T09:30:13;98555.03;;;20.72;84.93
25664;BME280;13522;50.018;20.014;2023-07-31T09:33:26;98556.64;;;20.86;83.73
25664;BME280;13522;50.018;20.014;2023-07-31T09:36:43;98553.70;;;21.07;83.10
25664;BME280;13522;50.018;20.014;2023-07-31T09:39:57;98546.77;;;21.18;81.84
25664;BME280;13522;50.018;20.014;2023-07-31T09:43:11;98542.23;;;21.81;83.33
25664;BME280;13522;50.018;20.014;2023-07-31T09:46:28;98538.73;;;22.41;78.75
25664;BME280;13522;50.018;20.014;2023-07-31T09:49:48;98532.43;;;22.47;78.53
25664;BME280;13522;50.018;20.014;2023-07-31T09:53:00;98528.16;;;23.23;75.29
25664;BME280;13522;50.018;20.014;2023-07-31T09:56:13;98513.63;;;24.47;71.38
25664;BME280;13522;50.018;20.014;2023-07-31T09:59:26;98513.47;;;25.16;70.41
25664;BME280;13522;50.018;20.014;2023-07-31T10:02:39;98504.60;;;25.65;70.05
25664;BME280;13522;50.018;20.014;2023-07-31T10:05:55;98505.33;;;26.44;68.09
25664;BME280;13522;50.018;20.014;2023-07-31T10:09:09;98494.70;;;26.64;63.89
25664;BME280;13522;50.018;20.014;2023-07-31T10:12:24;98487.91;;;26.67;61.22
25664;BME280;13522;50.018;20.014;2023-07-31T10:15:38;98486.98;;;27.26;60.85
25664;BME280;13522;50.018;20.014;2023-07-31T10:18:52;98488.88;;;27.47;59.75
25664;BME280;13522;50.018;20.014;2023-07-31T10:22:07;98483.49;;;28.20;58.48
25664;BME280;13522;50.018;20.014;2023-07-31T10:25:21;98475.39;;;28.41;56.78
25664;BME280;13522;50.018;20.014;2023-07-31T10:28:34;98475.56;;;28.66;57.98
25664;BME280;13522;50.018;20.014;2023-07-31T10:31:49;98467.16;;;28.31;55.43
25664;BME280;13522;50.018;20.014;2023-07-31T10:35:03;98469.59;;;28.74;55.50
25664;BME280;13522;50.018;20.014;2023-07-31T10:38:17;98470.45;;;28.33;52.26
25664;BME280;13522;50.018;20.014;2023-07-31T10:41:33;98469.91;;;28.36;51.96
25664;BME280;13522;50.018;20.014;2023-07-31T10:44:48;98465.98;;;28.63;55.55
25664;BME280;13522;50.018;20.014;2023-07-31T10:48:03;98455.13;;;28.26;55.16
25664;BME280;13522;50.018;20.014;2023-07-31T10:51:16;98454.09;;;28.43;54.35
25664;BME280;13522;50.018;20.014;2023-07-31T10:54:31;98442.17;;;28.59;51.93
25664;BME280;13522;50.018;20.014;2023-07-31T10:57:46;98443.88;;;28.70;55.02
25664;BME280;13522;50.018;20.014;2023-07-31T11:01:01;98443.94;;;28.33;52.48
25664;BME280;13522;50.018;20.014;2023-07-31T11:04:16;98448.43;;;28.54;51.82
25664;BME280;13522;50.018;20.014;2023-07-31T11:07:48;98441.58;;;28.52;53.50
25664;BME280;13522;50.018;20.014;2023-07-31T11:11:09;98441.76;;;28.35;52.23
25664;BME280;13522;50.018;20.014;2023-07-31T11:14:22;98435.17;;;28.26;53.13
25664;BME280;13522;50.018;20.014;2023-07-31T11:17:39;98435.88;;;28.06;55.01
25664;BME280;13522;50.018;20.014;2023-07-31T11:20:52;98428.88;;;28.25;52.41
25664;BME280;13522;50.018;20.014;2023-07-31T11:24:05;98425.97;;;28.47;51.77
25664;BME280;13522;50.018;20.014;2023-07-31T11:27:18;98423.75;;;28.39;50.99
25664;BME280;13522;50.018;20.014;2023-07-31T11:30:31;98426.74;;;28.33;50.07
25664;BME280;13522;50.018;20.014;2023-07-31T11:33:44;98422.48;;;28.57;52.81
25664;BME280;13522;50.018;20.014;2023-07-31T11:36:56;98433.01;;;27.55;54.19
25664;BME280;13522;50.018;20.014;2023-07-31T11:40:11;98440.72;;;26.83;53.21
25664;BME280;13522;50.018;20.014;2023-07-31T11:43:23;98428.97;;;27.04;53.38
25664;BME280;13522;50.018;20.014;2023-07-31T11:46:37;98432.47;;;27.58;53.96
25664;BME280;13522;50.018;20.014;2023-07-31T11:49:50;98414.74;;;27.55;53.27
25664;BME280;13522;50.018;20.014;2023-07-31T11:53:07;98425.34;;;27.88;51.10
25664;BME280;13522;50.018;20.014;2023-07-31T11:56:20;98408.14;;;27.88;50.01
25664;BME280;13522;50.018;20.014;2023-07-31T11:59:33;98409.75;;;28.25;49.64
25664;BME280;13522;50.018;20.014;2023-07-31T12:02:47;98399.98;;;28.40;49.57
25664;BME280;13522;50.018;20.014;2023-07-31T12:06:01;98391.91;;;28.65;47.52
25664;BME280;13522;50.018;20.014;2023-07-31T12:09:16;98392.39;;;28.52;46.60
25664;BME280;13522;50.018;20.014;2023-07-31T12:12:28;98392.34;;;28.42;47.32
25664;BME280;13522;50.018;20.014;2023-07-31T12:15:42;98402.88;;;27.76;52.12
25664;BME280;13522;50.018;20.014;2023-07-31T12:18:54;98398.27;;;28.18;51.33
25664;BME280;13522;50.018;20.014;2023-07-31T12:22:14;98384.00;;;28.11;51.56
25664;BME280;13522;50.018;20.014;2023-07-31T12:25:32;98381.88;;;28.23;49.76
25664;BME280;13522;50.018;20.014;2023-07-31T12:28:47;98379.23;;;28.44;48.65
25664;BME280;13522;50.018;20.014;2023-07-31T12:32:00;98382.05;;;28.59;47.26
25664;BME280;13522;50.018;20.014;2023-07-31T12:35:13;98374.88;;;28.53;47.43
25664;BME280;13522;50.018;20.014;2023-07-31T12:38:26;98372.57;;;28.19;47.37
25664;BME280;13522;50.018;20.014;2023-07-31T12:41:39;98370.62;;;27.68;50.89
25664;BME280;13522;50.018;20.014;2023-07-31T12:44:52;98377.86;;;27.21;52.00
25664;BME280;13522;50.018;20.014;2023-07-31T12:48:05;98373.11;;;27.38;52.21
25664;BME280;13522;50.018;20.014;2023-07-31T12:51:18;98364.74;;;27.91;49.74
25664;BME280;13522;50.018;20.014;2023-07-31T12:54:32;98358.91;;;28.14;49.93
25664;BME280;13522;50.018;20.014;2023-07-31T12:57:47;98357.80;;;28.10;49.44
25664;BME280;13522;50.018;20.014;2023-07-31T13:01:03;98355.16;;;28.36;48.58
25664;BME280;13522;50.018;20.014;2023-07-31T13:04:16;98348.77;;;28.82;48.91
25664;BME280;13522;50.018;20.014;2023-07-31T13:07:30;98338.67;;;28.97;46.22
25664;BME280;13522;50.018;20.014;2023-07-31T13:10:42;98343.28;;;28.72;47.08
25664;BME280;13522;50.018;20.014;2023-07-31T13:13:55;98331.64;;;28.29;45.32
25664;BME280;13522;50.018;20.014;2023-07-31T13:17:07;98330.08;;;28.54;45.92
25664;BME280;13522;50.018;20.014;2023-07-31T13:20:20;98321.91;;;28.59;47.82
25664;BME280;13522;50.018;20.014;2023-07-31T13:23:33;98324.14;;;28.72;45.81
25664;BME280;13522;50.018;20.014;2023-07-31T13:26:45;98327.11;;;28.55;46.00
25664;BME280;13522;50.018;20.014;2023-07-31T13:29:58;98322.23;;;28.82;48.22
25664;BME280;13522;50.018;20.014;2023-07-31T13:33:10;98318.70;;;28.97;49.00
25664;BME280;13522;50.018;20.014;2023-07-31T13:36:25;98323.31;;;28.76;48.29
25664;BME280;13522;50.018;20.014;2023-07-31T13:39:40;98315.66;;;28.78;45.48
25664;BME280;13522;50.018;20.014;2023-07-31T13:42:53;98324.59;;;28.44;44.97
25664;BME280;13522;50.018;20.014;2023-07-31T13:46:05;98327.20;;;28.13;46.80
25664;BME280;13522;50.018;20.014;2023-07-31T13:49:17;98320.47;;;28.36;47.32
25664;BME280;13522;50.018;20.014;2023-07-31T13:52:30;98321.19;;;28.11;48.51
25664;BME280;13522;50.018;20.014;2023-07-31T13:55:43;98313.88;;;27.75;46.70
25664;BME280;13522;50.018;20.014;2023-07-31T13:58:55;98318.41;;;28.01;46.02
25664;BME280;13522;50.018;20.014;2023-07-31T14:02:09;98315.95;;;27.95;44.95
25664;BME280;13522;50.018;20.014;2023-07-31T14:05:22;98308.59;;;28.00;46.46
25664;BME280;13522;50.018;20.014;2023-07-31T14:08:34;98307.30;;;28.23;46.71
25664;BME280;13522;50.018;20.014;2023-07-31T14:11:47;98314.11;;;28.15;45.18
25664;BME280;13522;50.018;20.014;2023-07-31T14:14:59;98307.57;;;28.16;45.58
25664;BME280;13522;50.018;20.014;2023-07-31T14:18:11;98295.61;;;28.33;47.18
25664;BME280;13522;50.018;20.014;2023-07-31T14:21:24;98294.44;;;28.13;43.22
25664;BME280;13522;50.018;20.014;2023-07-31T14:24:36;98290.55;;;27.99;44.80
25664;BME280;13522;50.018;20.014;2023-07-31T14:27:49;98283.39;;;27.88;44.26
25664;BME280;13522;50.018;20.014;2023-07-31T14:31:01;98283.34;;;27.83;44.47
25664;BME280;13522;50.018;20.014;2023-07-31T14:34:14;98288.73;;;27.63;44.87
25664;BME280;13522;50.018;20.014;2023-07-31T14:37:35;98282.23;;;27.74;44.38
25664;BME280;13522;50.018;20.014;2023-07-31T14:40:49;98277.72;;;27.95;46.26
25664;BME280;13522;50.018;20.014;2023-07-31T14:44:02;98281.04;;;27.55;45.17
25664;BME280;13522;50.018;20.014;2023-07-31T14:47:15;98278.25;;;27.45;44.74
25664;BME280;13522;50.018;20.014;2023-07-31T14:50:28;98272.30;;;27.53;44.91
25664;BME280;13522;50.018;20.014;2023-07-31T14:53:41;98269.27;;;27.13;46.64
25664;BME280;13522;50.018;20.014;2023-07-31T14:56:53;98267.39;;;27.18;46.81
25664;BME280;13522;50.018;20.014;2023-07-31T15:00:09;98264.48;;;26.93;45.72
25664;BME280;13522;50.018;20.014;2023-07-31T15:03:22;98257.72;;;27.01;45.83
25664;BME280;13522;50.018;20.014;2023-07-31T15:06:36;98260.45;;;27.01;49.00
25664;BME280;13522;50.018;20.014;2023-07-31T15:09:50;98265.77;;;27.17;48.89
25664;BME280;13522;50.018;20.014;2023-07-31T15:13:03;98254.99;;;27.01;46.68
25664;BME280;13522;50.018;20.014;2023-07-31T15:16:15;98262.26;;;26.90;48.48
25664;BME280;13522;50.018;20.014;2023-07-31T15:19:28;98263.30;;;26.84;49.33
25664;BME280;13522;50.018;20.014;2023-07-31T15:22:41;98258.11;;;26.83;51.97
25664;BME280;13522;50.018;20.014;2023-07-31T15:25:54;98266.47;;;26.71;48.85
25664;BME280;13522;50.018;20.014;2023-07-31T15:29:08;98262.48;;;26.57;49.37
25664;BME280;13522;50.018;20.014;2023-07-31T15:32:23;98261.81;;;26.45;48.95
25664;BME280;13522;50.018;20.014;2023-07-31T15:35:35;98261.72;;;26.35;53.02
25664;BME280;13522;50.018;20.014;2023-07-31T15:38:49;98250.56;;;26.10;49.97
25664;BME280;13522;50.018;20.014;2023-07-31T15:42:02;98244.92;;;25.95;50.04
25664;BME280;13522;50.018;20.014;2023-07-31T15:45:15;98257.19;;;25.75;52.42
25664;BME280;13522;50.018;20.014;2023-07-31T15:48:27;98257.00;;;25.60;53.42
25664;BME280;13522;50.018;20.014;2023-07-31T15:51:40;98248.13;;;25.32;51.89
25664;BME280;13522;50.018;20.014;2023-07-31T15:54:52;98257.79;;;25.23;54.44
25664;BME280;13522;50.018;20.014;2023-07-31T15:58:05;98251.69;;;25.16;54.39
25664;BME280;13522;50.018;20.014;2023-07-31T16:01:18;98250.22;;;25.08;54.38
25664;BME280;13522;50.018;20.014;2023-07-31T16:04:30;98244.98;;;25.02;54.83
25664;BME280;13522;50.018;20.014;2023-07-31T16:07:43;98247.95;;;24.83;54.07
25664;BME280;13522;50.018;20.014;2023-07-31T16:10:55;98245.13;;;24.78;54.04
25664;BME280;13522;50.018;20.014;2023-07-31T16:14:08;98246.59;;;24.69;55.29
25664;BME280;13522;50.018;20.014;2023-07-31T16:17:20;98245.11;;;24.62;55.55
25664;BME280;13522;50.018;20.014;2023-07-31T16:20:34;98243.38;;;24.56;55.73
25664;BME280;13522;50.018;20.014;2023-07-31T16:23:46;98247.29;;;24.48;56.52
25664;BME280;13522;50.018;20.014;2023-07-31T16:26:59;98242.44;;;24.50;57.51
25664;BME280;13522;50.018;20.014;2023-07-31T16:30:12;98241.31;;;24.46;56.79
25664;BME280;13522;50.018;20.014;2023-07-31T16:33:24;98239.07;;;24.43;57.10
25664;BME280;13522;50.018;20.014;2023-07-31T16:36:39;98245.08;;;24.45;58.38
25664;BME280;13522;50.018;20.014;2023-07-31T16:39:52;98233.17;;;24.46;58.12
25664;BME280;13522;50.018;20.014;2023-07-31T16:43:04;98229.88;;;24.44;58.65
25664;BME280;13522;50.018;20.014;2023-07-31T16:46:18;98240.63;;;24.39;58.59